Time;durP1;ratioP1;P1;durP2;ratioP2;P2;SDS_P1;SDS_P2;PMS_P1;PMS_P2;Temp;Humidity;BMP_temperature;BMP_pressure;BME280_temperature;BME280_humidity;BME280_pressure;Samples;Min_cycle;Max_cycle;Signal;HPM_P1;HPM_P2
2022/05/27 00:01:23;;;;;;;3.72;2.00;;;;;;;14.69;71.83;101943.41;6215058;23;20054;-82
2022/05/27 00:03:49;;;;;;;2.45;1.80;;;;;;;14.70;71.42;101939.88;6215509;23;20024;-82
2022/05/27 00:06:15;;;;;;;3.42;2.00;;;;;;;14.69;71.57;101929.47;6215562;23;20067;-83
2022/05/27 00:08:43;;;;;;;3.33;1.92;;;;;;;14.67;72.02;101925.13;6214514;23;20087;-82
2022/05/27 00:11:08;;;;;;;7.78;2.40;;;;;;;14.64;72.76;101925.13;6215928;23;20369;-83
2022/05/27 00:13:34;;;;;;;2.97;2.23;;;;;;;14.65;72.24;101926.88;6215910;23;20008;-82
2022/05/27 00:16:00;;;;;;;3.05;1.88;;;;;;;14.66;71.56;101932.97;6214589;23;20028;-82
2022/05/27 00:18:25;;;;;;;2.20;2.00;;;;;;;14.64;71.97;101922.53;6215617;23;20330;-82
2022/05/27 00:20:51;;;;;;;3.23;1.90;;;;;;;14.65;72.33;101932.09;6214357;23;20019;-82
2022/05/27 00:23:19;;;;;;;3.17;1.83;;;;;;;14.63;72.60;101906.88;6215614;23;20084;-81
2022/05/27 00:25:44;;;;;;;4.47;2.10;;;;;;;14.61;72.48;101913.88;6215006;23;20421;-82
2022/05/27 00:28:09;;;;;;;2.93;1.90;;;;;;;14.61;72.21;101919.97;6214772;23;20004;-82
2022/05/27 00:30:36;;;;;;;3.43;2.00;;;;;;;14.61;72.58;101921.72;6215436;23;20017;-83
2022/05/27 00:33:02;;;;;;;3.85;2.40;;;;;;;14.60;72.54;101915.63;6214865;23;20071;-82
2022/05/27 00:35:27;;;;;;;3.65;1.95;;;;;;;14.59;72.68;101921.75;6214181;23;20436;-82
2022/05/27 00:37:53;;;;;;;1.70;1.60;;;;;;;14.62;72.17;101920.84;6215290;23;20040;-82
2022/05/27 00:40:20;;;;;;;2.70;1.60;;;;;;;14.61;72.37;101921.72;6213690;23;20040;-82
2022/05/27 00:42:46;;;;;;;3.53;1.90;;;;;;;14.62;72.58;101920.84;6213795;23;20079;-83
2022/05/27 00:45:17;;;;;;;3.22;1.70;;;;;;;14.64;72.73;101921.69;6215216;23;20001;-83
2022/05/27 00:47:43;;;;;;;2.10;1.70;;;;;;;14.63;72.26;101912.09;6214968;23;20015;-83
2022/05/27 00:50:11;;;;;;;2.00;1.80;;;;;;;14.62;72.97;101915.59;6213723;23;20004;-83
2022/05/27 00:52:38;;;;;;;2.22;1.85;;;;;;;14.61;73.42;101903.44;6215032;23;20009;-82
2022/05/27 00:55:11;;;;;;;3.67;2.10;;;;;;;14.63;73.10;101915.59;6215487;23;20009;-82
2022/05/27 00:57:53;;;;;;;3.55;2.10;;;;;;;14.58;73.67;101906.94;6214230;23;20000;-82
2022/05/27 01:00:22;;;;;;;4.07;2.20;;;;;;;14.51;75.46;101918.38;6215518;23;20005;-82
2022/05/27 01:02:48;;;;;;;3.78;2.20;;;;;;;14.43;75.44;101908.06;6215109;23;20000;-82
2022/05/27 01:05:16;;;;;;;4.55;2.00;;;;;;;14.38;75.57;101912.47;6214645;23;20000;-83
2022/05/27 01:07:42;;;;;;;2.35;2.10;;;;;;;14.33;75.34;101907.31;6214849;23;20008;-83
2022/05/27 01:10:11;;;;;;;5.40;2.20;;;;;;;14.31;75.71;101903.00;6214627;23;20000;-82
2022/05/27 01:12:49;;;;;;;2.22;2.00;;;;;;;14.30;75.00;101901.28;6214622;23;20445;-82
2022/05/27 01:15:48;;;;;;;2.63;2.10;;;;;;;14.28;76.34;101901.31;6214927;23;20043;-82
2022/05/27 01:18:22;;;;;;;3.78;2.20;;;;;;;14.25;76.56;101898.72;6214156;23;20019;-84
2022/05/27 01:21:05;;;;;;;3.22;2.20;;;;;;;14.23;77.20;101905.72;6215315;23;20138;-83
2022/05/27 01:23:39;;;;;;;3.63;2.10;;;;;;;14.22;76.27;101898.75;6215352;23;20004;-83
2022/05/27 01:26:17;;;;;;;3.35;2.28;;;;;;;14.19;79.91;101896.19;6214702;23;20012;-83
2022/05/27 01:29:03;;;;;;;3.28;2.05;;;;;;;14.13;77.91;101898.88;6214343;23;20013;-84
2022/05/27 01:31:59;;;;;;;2.60;1.80;;;;;;;14.07;79.20;101899.84;6213693;23;20020;-84
2022/05/27 01:34:57;;;;;;;3.55;2.25;;;;;;;14.04;78.58;101895.53;6215677;23;20009;-83
2022/05/27 01:37:36;;;;;;;2.40;2.00;;;;;;;14.01;78.31;101907.75;6215310;23;20424;-85
2022/05/27 01:40:17;;;;;;;2.00;1.80;;;;;;;13.98;79.42;101900.81;6214237;23;20016;-84
2022/05/27 01:43:02;;;;;;;3.17;2.10;;;;;;;13.94;80.11;101903.47;6215009;23;20007;-84
2022/05/27 01:45:55;;;;;;;2.73;1.97;;;;;;;13.89;79.04;101901.81;6214128;23;20440;-84
2022/05/27 01:48:27;;;;;;;1.90;1.80;;;;;;;13.89;80.99;101898.31;6216130;23;20008;-85
2022/05/27 01:51:07;;;;;;;4.53;2.05;;;;;;;13.85;82.02;101899.22;6216904;23;20024;-84
2022/05/27 01:54:04;;;;;;;2.30;2.10;;;;;;;13.80;81.22;101903.66;6216286;23;20108;-83
2022/05/27 01:56:43;;;;;;;4.35;2.08;;;;;;;13.80;82.25;101903.66;6205683;23;20016;-85
2022/05/27 01:59:16;;;;;;;4.95;2.55;;;;;;;13.73;81.70;101895.91;6217284;23;20008;-85
2022/05/27 02:01:48;;;;;;;3.05;2.08;;;;;;;13.72;81.26;101898.50;6216808;23;20000;-85
2022/05/27 02:04:22;;;;;;;2.63;1.80;;;;;;;13.68;80.61;101895.09;6217271;23;20047;-85
2022/05/27 02:06:57;;;;;;;1.92;1.73;;;;;;;13.70;81.62;101897.66;6215902;23;20483;-85
2022/05/27 02:09:28;;;;;;;3.00;1.92;;;;;;;13.68;81.16;101896.84;6217220;23;20008;-85
2022/05/27 02:12:05;;;;;;;1.75;1.65;;;;;;;13.69;83.29;101899.41;6217408;23;20012;-84
2022/05/27 02:15:02;;;;;;;1.88;1.65;;;;;;;13.65;84.35;101896.88;6217156;23;20000;-86
2022/05/27 02:17:40;;;;;;;2.30;2.10;;;;;;;13.63;82.49;101902.09;6210187;23;20016;-85
2022/05/27 02:20:14;;;;;;;4.47;2.50;;;;;;;13.56;85.14;101896.09;6220538;23;20008;-84
2022/05/27 02:23:03;;;;;;;3.28;2.10;;;;;;;13.53;83.22;101903.06;6217867;23;20016;-84
2022/05/27 02:25:51;;;;;;;4.72;2.30;;;;;;;13.50;82.65;101905.72;6217794;23;20005;-84
2022/05/27 02:28:21;;;;;;;2.97;2.28;;;;;;;13.50;85.13;101890.09;6216032;23;20383;-84
2022/05/27 02:30:56;;;;;;;6.03;2.70;;;;;;;13.47;82.93;101890.09;6217046;23;20032;-83
2022/05/27 02:36:14;;;;;;;3.53;2.40;;;;;;;13.38;83.52;101894.50;6216851;23;20032;-84
2022/05/27 02:38:40;;;;;;;3.50;2.42;;;;;;;13.42;84.02;101901.44;6217033;23;20009;-84
2022/05/27 02:41:15;;;;;;;4.43;2.60;;;;;;;13.40;85.03;101881.47;6218196;23;20011;-85
2022/05/27 02:44:11;;;;;;;2.90;2.20;;;;;;;13.42;85.80;101887.56;6215877;23;20015;-85
2022/05/27 02:46:48;;;;;;;;;;;;;;;13.38;85.15;101889.31;6217069;23;20032;-85
2022/05/27 02:49:38;;;;;;;3.83;2.50;;;;;;;13.36;85.10;101891.06;6215901;23;19943;-85
2022/05/27 02:52:22;;;;;;;4.47;2.78;;;;;;;13.35;84.07;101896.25;6216933;23;20005;-86
2022/05/27 02:55:11;;;;;;;7.05;2.92;;;;;;;13.32;85.44;101891.94;6216650;23;20024;-86
2022/05/27 02:57:46;;;;;;;4.22;3.00;;;;;;;13.32;87.35;101897.16;6216123;23;20035;-85
2022/05/27 03:00:17;;;;;;;4.28;2.83;;;;;;;13.32;86.60;101894.56;6216698;23;20008;-87
2022/05/27 03:02:43;;;;;;;2.88;2.22;;;;;;;13.32;84.53;101891.94;6216792;23;20012;-92
2022/05/27 03:05:09;;;;;;;3.97;2.40;;;;;;;13.34;86.17;101884.97;6216943;23;20015;-85
2022/05/27 03:08:03;;;;;;;2.30;2.10;;;;;;;13.35;82.83;101880.63;6216401;23;20421;-86
2022/05/27 03:10:59;;;;;;;2.33;2.13;;;;;;;13.37;85.08;101886.69;6216369;23;20005;-86
2022/05/27 03:13:36;;;;;;;;;;;;;;;13.39;84.69;101882.31;6217100;23;20008;-87
2022/05/27 03:16:18;;;;;;;2.15;2.05;;;;;;;13.42;85.39;101880.56;6216972;23;20241;-87
2022/05/27 03:18:50;;;;;;;4.22;2.97;;;;;;;13.37;89.86;101905.81;6215587;23;20055;-86
2022/05/27 03:21:26;;;;;;;7.45;4.40;;;;;;;13.32;89.84;101907.59;6217181;23;20039;-89
2022/05/27 03:24:14;;;;;;;5.50;3.88;;;;;;;13.27;88.07;101910.25;6216916;23;20000;-90
2022/05/27 03:27:02;;;;;;;2.85;2.58;;;;;;;13.24;88.43;101904.19;6216856;23;20355;-89
2022/05/27 03:29:53;;;;;;;2.33;2.13;;;;;;;13.23;86.39;101905.06;6216957;23;20437;-87
2022/05/27 03:32:27;;;;;;;2.42;2.08;;;;;;;13.24;86.97;101888.56;6215941;23;20001;-87
2022/05/27 03:35:10;;;;;;;1.85;1.75;;;;;;;13.24;85.73;101884.19;6216899;23;20012;-87
2022/05/27 03:37:54;;;;;;;1.55;1.45;;;;;;;13.28;86.15;101890.28;6217531;23;20005;-87
2022/05/27 03:40:26;;;;;;;1.50;1.40;;;;;;;13.28;85.40;101895.50;6216939;23;20059;-87
2022/05/27 03:42:53;;;;;;;1.30;1.20;;;;;;;13.27;84.76;101901.56;6216428;23;20000;-88
2022/05/27 03:45:21;;;;;;;1.30;1.20;;;;;;;13.29;86.09;101905.88;6216210;23;20009;-89
2022/05/27 03:47:47;;;;;;;1.92;1.48;;;;;;;13.23;86.13;101882.47;6217192;23;20005;-88
2022/05/27 03:50:17;;;;;;;1.17;1.10;;;;;;;13.22;84.88;101880.78;6217178;23;20007;-89
2022/05/27 03:52:45;;;;;;;1.27;1.17;;;;;;;13.22;84.40;101885.09;6215823;23;20303;-87
2022/05/27 03:55:13;;;;;;;1.10;1.10;;;;;;;13.23;85.41;101885.06;6216469;23;20001;-87
2022/05/27 03:57:40;;;;;;;0.80;0.80;;;;;;;13.22;85.06;101883.38;6215380;23;20067;-86
2022/05/27 04:00:06;;;;;;;0.80;0.77;;;;;;;13.24;84.72;101891.16;6216777;23;20054;-86
2022/05/27 04:02:32;;;;;;;0.70;0.70;;;;;;;13.22;84.43;101879.88;6216051;23;20345;-86
2022/05/27 04:04:57;;;;;;;0.57;0.57;;;;;;;13.23;83.86;101874.66;6215746;23;20050;-86
2022/05/27 04:07:22;;;;;;;0.50;0.50;;;;;;;13.25;83.95;101877.25;6215769;23;20000;-86
2022/05/27 04:09:48;;;;;;;0.40;0.40;;;;;;;13.25;84.38;101878.09;6213682;23;20024;-86
2022/05/27 04:12:13;;;;;;;1.23;1.00;;;;;;;13.22;84.83;101882.50;6216208;23;20008;-86
2022/05/27 04:14:39;;;;;;;0.97;0.80;;;;;;;13.23;84.15;101884.22;6214990;23;19996;-85
2022/05/27 04:19:48;;;;;;;0.90;0.70;;;;;;;13.23;84.38;101894.66;6215334;23;20065;-85
2022/05/27 04:22:13;;;;;;;0.70;0.70;;;;;;;13.24;83.39;101897.22;6215180;23;20009;-85
2022/05/27 04:24:39;;;;;;;0.60;0.60;;;;;;;13.27;83.49;101897.22;6217320;23;20402;-85
2022/05/27 04:27:13;;;;;;;0.80;0.80;;;;;;;13.32;83.29;101896.31;6215217;23;20050;-85
2022/05/27 04:29:40;;;;;;;0.60;0.60;;;;;;;13.34;83.60;101894.56;6215962;23;20059;-85
2022/05/27 04:32:06;;;;;;;0.90;0.60;;;;;;;13.37;83.26;101895.38;6217127;23;20079;-85
2022/05/27 04:34:31;;;;;;;0.67;0.67;;;;;;;13.40;84.34;101899.72;6215090;23;20363;-85
2022/05/27 04:36:57;;;;;;;0.80;0.80;;;;;;;13.42;84.79;101900.59;6215890;23;20028;-85
2022/05/27 04:39:22;;;;;;;0.53;0.53;;;;;;;13.42;84.48;101905.81;6216016;23;20008;-85
2022/05/27 04:41:47;;;;;;;0.70;0.70;;;;;;;13.43;83.59;101904.94;6215399;23;20001;-84
2022/05/27 04:44:12;;;;;;;0.53;0.53;;;;;;;13.46;83.73;101901.41;6215975;23;20011;-85
2022/05/27 04:46:38;;;;;;;0.90;0.90;;;;;;;13.47;84.88;101904.00;6215138;23;20004;-84
2022/05/27 04:49:03;;;;;;;0.67;0.50;;;;;;;13.51;83.87;101897.88;6213902;23;20019;-83
2022/05/27 04:51:28;;;;;;;0.63;0.63;;;;;;;13.57;85.29;101899.56;6214904;23;20001;-85
2022/05/27 04:53:57;;;;;;;0.70;0.70;;;;;;;13.60;84.70;101899.53;6215547;23;20009;-85
2022/05/27 04:56:25;;;;;;;1.30;1.00;;;;;;;13.64;84.96;101906.41;6214506;23;20097;-85
2022/05/27 04:58:50;;;;;;;1.30;0.88;;;;;;;13.68;84.04;101905.53;6215073;23;20311;-84
2022/05/27 05:01:16;;;;;;;0.73;0.73;;;;;;;13.73;84.35;101906.34;6216083;23;20001;-84
2022/05/27 05:03:41;;;;;;;0.87;0.87;;;;;;;13.78;83.71;101903.69;6214877;23;20110;-84
2022/05/27 05:06:06;;;;;;;0.80;0.80;;;;;;;13.85;84.04;101904.44;6215288;23;20005;-84
2022/05/27 05:08:33;;;;;;;2.47;1.33;;;;;;;13.92;84.83;101913.94;6215683;23;20036;-84
2022/05/27 05:11:01;;;;;;;1.30;1.20;;;;;;;14.00;85.00;101914.69;6214183;23;20005;-84
2022/05/27 05:13:27;;;;;;;1.30;1.20;;;;;;;14.06;84.66;101916.38;6215558;23;20088;-83
2022/05/27 05:15:53;;;;;;;0.80;0.80;;;;;;;14.12;84.73;101921.53;6215604;23;20032;-83
2022/05/27 05:18:18;;;;;;;1.50;1.27;;;;;;;14.16;85.44;101919.75;6215349;23;20005;-83
2022/05/27 05:20:44;;;;;;;2.10;1.30;;;;;;;14.14;85.29;101929.34;6215294;23;20075;-84
2022/05/27 05:23:09;;;;;;;1.93;1.70;;;;;;;14.17;86.07;101939.75;6217670;23;20005;-84
2022/05/27 05:25:37;;;;;;;1.37;1.17;;;;;;;14.21;85.25;101929.25;6216711;23;20012;-84
2022/05/27 05:28:03;;;;;;;1.25;1.25;;;;;;;14.31;85.26;101927.34;6217431;23;20004;-83
2022/05/27 05:30:28;;;;;;;1.57;1.43;;;;;;;14.40;86.42;101925.53;6216581;23;20087;-84
2022/05/27 05:32:53;;;;;;;2.07;1.80;;;;;;;14.42;86.41;101935.06;6216559;23;20011;-83
2022/05/27 05:35:20;;;;;;;6.43;2.90;;;;;;;14.41;87.34;101935.09;6217899;23;20072;-83
2022/05/27 05:37:45;;;;;;;3.10;2.25;;;;;;;14.44;87.44;101935.00;6216770;23;20031;-83
2022/05/27 05:40:12;;;;;;;2.40;2.00;;;;;;;14.48;87.61;101934.94;6218077;23;20005;-83
2022/05/27 05:42:38;;;;;;;6.05;2.63;;;;;;;14.48;87.66;101937.56;6216483;23;20000;-83
2022/05/27 05:45:04;;;;;;;4.00;2.37;;;;;;;14.46;86.75;101946.31;6216340;23;19996;-83
2022/05/27 05:47:30;;;;;;;3.03;2.15;;;;;;;14.47;86.84;101953.25;6217001;23;20005;-83
2022/05/27 05:49:55;;;;;;;3.50;1.90;;;;;;;14.48;86.13;101948.00;6216947;23;20816;-84
2022/05/27 05:52:20;;;;;;;2.20;1.70;;;;;;;14.52;85.34;101957.53;6216345;23;20001;-76
2022/05/27 05:54:46;;;;;;;2.17;1.80;;;;;;;14.60;86.58;101959.16;6216887;23;20075;-78
2022/05/27 05:57:11;;;;;;;4.50;2.40;;;;;;;14.63;87.26;101957.41;6217092;23;20010;-79
2022/05/27 05:59:38;;;;;;;3.37;2.20;;;;;;;14.71;86.58;101956.44;6216367;23;20031;-79
2022/05/27 06:02:05;;;;;;;5.03;2.50;;;;;;;14.82;87.94;101959.75;6217888;23;20054;-78
2022/05/27 06:04:30;;;;;;;3.70;2.30;;;;;;;14.90;86.53;101959.66;6217194;23;20005;-77
2022/05/27 06:06:56;;;;;;;3.10;2.37;;;;;;;14.95;85.89;101956.06;6216147;23;20013;-77
2022/05/27 06:09:25;;;;;;;4.67;2.40;;;;;;;14.94;84.73;101950.84;6217772;23;20357;-77
2022/05/27 06:11:54;;;;;;;4.93;2.60;;;;;;;14.95;84.41;101952.59;6216522;23;20005;-78
2022/05/27 06:14:20;;;;;;;3.20;2.05;;;;;;;15.03;84.22;101955.94;6216152;23;20377;-79
2022/05/27 06:16:46;;;;;;;2.43;1.83;;;;;;;15.29;84.61;101954.63;6216535;23;20004;-80
2022/05/27 06:19:11;;;;;;;3.47;1.77;;;;;;;15.50;82.94;101960.38;6217768;23;20004;-79
2022/05/27 06:21:36;;;;;;;6.87;2.70;;;;;;;15.53;81.09;101962.94;6215799;23;20008;-79
2022/05/27 06:24:03;;;;;;;6.17;2.67;;;;;;;15.43;81.10;101963.13;6217232;23;20008;-79
2022/05/27 06:26:28;;;;;;;;;;;;;;;15.37;80.38;101967.59;6217880;23;20076;-79
2022/05/27 06:34:25;;;;;;;2.38;1.80;;;;;;;16.46;80.16;101979.47;6215460;23;20024;-79
2022/05/27 06:36:54;;;;;;;3.35;2.00;;;;;;;17.02;76.56;101968.59;6216829;23;20001;-79
2022/05/27 06:39:21;;;;;;;3.38;1.92;;;;;;;17.35;75.54;101975.66;6216854;23;20001;-81
2022/05/27 06:41:46;;;;;;;;;;;;;;;17.44;71.86;101978.91;6216467;23;20378;-80
2022/05/27 06:44:12;;;;;;;2.77;1.80;;;;;;;17.52;73.60;101985.72;6216934;23;19915;-84
2022/05/27 06:46:40;;;;;;;5.17;2.20;;;;;;;17.65;71.49;101970.50;6215031;23;20436;-85
2022/05/27 06:49:06;;;;;;;3.47;1.98;;;;;;;17.79;70.73;101972.75;6214422;23;20035;-85
2022/05/27 06:51:34;;;;;;;3.43;1.73;;;;;;;17.94;70.71;101966.22;6216437;23;20000;-85
2022/05/27 06:54:00;;;;;;;2.20;1.60;;;;;;;18.06;70.80;101973.78;6216463;23;20076;-84
2022/05/27 06:56:25;;;;;;;2.37;1.57;;;;;;;18.18;71.63;101978.66;6214676;23;20044;-85
2022/05/27 06:58:51;;;;;;;2.03;1.50;;;;;;;18.27;71.34;101974.91;6215689;23;20020;-84
2022/05/27 07:01:16;;;;;;;1.83;1.13;;;;;;;18.34;68.40;101978.22;6216642;23;20075;-85
2022/05/27 07:03:41;;;;;;;1.50;1.30;;;;;;;18.28;67.75;101981.88;6215352;23;20020;-85
2022/05/27 07:06:11;;;;;;;2.57;1.53;;;;;;;18.14;67.55;101978.78;6216656;23;20048;-85
2022/05/27 07:08:37;;;;;;;3.05;1.60;;;;;;;18.12;66.26;101980.63;6216086;23;20032;-85
2022/05/27 07:11:03;;;;;;;2.92;1.70;;;;;;;18.06;70.04;101985.13;6215225;23;20406;-85
2022/05/27 07:13:29;;;;;;;;;;;;;;;18.15;69.36;101983.13;6216910;23;20004;-85
2022/05/27 07:15:54;;;;;;;6.17;2.23;;;;;;;18.15;64.31;101983.13;6215084;23;20005;-85
2022/05/27 07:18:19;;;;;;;6.97;2.20;;;;;;;17.91;65.97;101988.16;6216508;23;20377;-84
2022/05/27 07:20:45;;;;;;;3.77;1.80;;;;;;;17.72;68.85;101985.19;6216878;23;20020;-84
2022/05/27 07:23:13;;;;;;;2.80;2.00;;;;;;;17.57;69.89;101978.56;6215389;23;20004;-85
2022/05/27 07:25:38;;;;;;;1.95;1.58;;;;;;;17.47;69.68;101984.97;6215838;23;20032;-84
2022/05/27 07:28:07;;;;;;;1.53;1.43;;;;;;;17.39;69.56;101991.28;6217155;23;20004;-84
2022/05/27 07:30:36;;;;;;;1.20;1.10;;;;;;;17.31;70.14;101990.63;6215483;23;20023;-84
2022/05/27 07:33:01;;;;;;;1.85;1.40;;;;;;;17.13;67.33;101994.56;6208941;23;20334;-85
2022/05/27 07:35:27;;;;;;;3.97;1.90;;;;;;;16.97;68.83;101980.97;6216359;23;20007;-84
2022/05/27 07:37:52;;;;;;;2.10;1.70;;;;;;;16.92;70.95;101982.78;6214835;23;20476;-84
2022/05/27 07:40:18;;;;;;;1.27;1.17;;;;;;;17.09;71.18;101993.78;6216365;23;20080;-85
2022/05/27 07:42:48;;;;;;;1.63;1.20;;;;;;;17.19;71.34;101988.31;6216158;23;20021;-84
2022/05/27 07:45:16;;;;;;;1.30;1.20;;;;;;;17.16;70.92;101991.88;6214949;23;20236;-84
2022/05/27 07:47:41;;;;;;;1.40;1.30;;;;;;;17.07;70.40;101985.09;6215509;23;20034;-84
2022/05/27 07:50:08;;;;;;;1.40;1.30;;;;;;;16.83;68.00;102000.47;6216834;23;20121;-84
2022/05/27 07:52:34;;;;;;;;;;;;;;;16.58;69.59;102007.16;6216157;23;20011;-84
2022/05/27 07:55:04;;;;;;;2.78;1.70;;;;;;;16.40;70.24;102011.91;6215177;23;20326;-83
2022/05/27 07:57:29;;;;;;;3.85;1.98;;;;;;;16.20;69.78;102010.56;6216102;23;20009;-84
2022/05/27 07:59:54;;;;;;;3.40;2.10;;;;;;;16.11;71.18;102009.88;6214665;23;20014;-83
2022/05/27 08:02:23;;;;;;;5.73;2.10;;;;;;;15.98;69.27;102014.50;6216099;23;20005;-84
2022/05/27 08:04:48;;;;;;;7.60;2.60;;;;;;;15.97;66.85;102004.91;6215243;23;20418;-85
2022/05/27 08:07:14;;;;;;;5.73;2.40;;;;;;;16.00;68.50;102012.69;6215026;23;20035;-85
2022/05/27 08:09:39;;;;;;;5.23;2.30;;;;;;;15.91;68.97;102013.75;6215343;23;20035;-84
2022/05/27 08:12:06;;;;;;;2.83;2.10;;;;;;;15.99;69.54;102000.50;6215038;23;20411;-84
2022/05/27 08:14:31;;;;;;;3.70;2.10;;;;;;;16.07;69.62;102011.69;6215947;23;20123;-84
2022/05/27 08:16:57;;;;;;;5.33;1.90;;;;;;;16.07;69.60;102016.94;6215075;23;20533;-84
2022/05/27 08:19:23;;;;;;;4.53;2.13;;;;;;;16.23;69.84;102024.47;6214768;23;20464;-85
2022/05/27 08:21:51;;;;;;;3.33;1.70;;;;;;;16.48;69.26;102023.06;6214775;23;20015;-85
2022/05/27 08:24:17;;;;;;;2.20;1.55;;;;;;;16.72;68.94;102023.44;6216011;23;20418;-85
2022/05/27 08:26:43;;;;;;;3.77;2.10;;;;;;;16.96;65.37;102021.19;6214652;23;20054;-85
2022/05/27 08:29:10;;;;;;;8.43;2.50;;;;;;;16.79;64.48;102021.56;6216315;23;20073;-84
2022/05/27 08:31:37;;;;;;;5.65;2.42;;;;;;;16.78;66.60;102023.28;6215463;23;20020;-82
2022/05/27 08:39:46;;;;;;;8.38;2.50;;;;;;;17.03;62.53;102020.13;6215335;23;20019;-84
2022/05/27 08:42:48;;;;;;;8.30;3.00;;;;;;;17.01;63.21;102026.34;6215189;23;20024;-85
2022/05/27 08:45:37;;;;;;;5.30;2.70;;;;;;;16.63;61.91;102042.00;6215667;23;20008;-86
2022/05/27 08:48:10;;;;;;;5.95;2.38;;;;;;;16.21;64.53;102035.00;6212436;23;20425;-85
2022/05/27 08:50:43;;;;;;;6.25;2.40;;;;;;;15.99;65.34;102039.75;6215664;23;20008;-86
2022/05/27 08:53:27;;;;;;;7.90;2.67;;;;;;;16.09;63.28;102035.22;6214986;23;20004;-85
2022/05/27 09:01:40;;;;;;;6.85;2.60;;;;;;;16.50;64.61;102044.00;6212003;23;20059;-84
2022/05/27 09:04:23;;;;;;;6.55;2.53;;;;;;;16.85;62.94;102047.63;6215267;23;20004;-85
2022/05/27 09:06:52;;;;;;;6.80;2.72;;;;;;;17.03;62.89;102038.50;6216537;23;20004;-85
2022/05/27 09:09:22;;;;;;;5.30;2.30;;;;;;;17.24;61.26;102028.38;6214357;23;20070;-85
2022/05/27 09:12:29;;;;;;;8.00;2.83;;;;;;;17.40;60.87;102029.75;6214951;23;20074;-86
2022/05/27 09:15:02;;;;;;;5.25;2.40;;;;;;;17.60;59.68;102037.13;6213711;23;20005;-85
2022/05/27 09:17:42;;;;;;;8.52;3.10;;;;;;;17.43;57.35;102039.28;6214019;23;20000;-84
2022/05/27 09:20:21;;;;;;;6.45;2.53;;;;;;;17.28;61.26;102045.78;6215035;23;20035;-85
2022/05/27 09:23:16;;;;;;;5.88;2.10;;;;;;;17.38;61.16;102046.44;6214168;23;20040;-84
2022/05/27 09:26:23;;;;;;;5.90;2.35;;;;;;;17.50;60.13;102040.88;6215200;23;20011;-84
2022/05/27 09:29:07;;;;;;;6.72;2.50;;;;;;;17.69;57.30;102057.00;6215141;23;20020;-84
2022/05/27 09:31:45;;;;;;;8.90;3.15;;;;;;;17.43;58.84;102062.91;6213851;23;20438;-84
2022/05/27 09:34:12;;;;;;;8.32;2.70;;;;;;;17.21;59.47;102068.69;6215799;23;20076;-85
2022/05/27 09:36:44;;;;;;;6.43;2.58;;;;;;;17.24;58.73;102068.63;6213660;23;20040;-84
2022/05/27 09:39:13;;;;;;;8.40;2.97;;;;;;;17.17;56.42;102066.16;6215499;23;20008;-84
2022/05/27 09:42:03;;;;;;;6.07;2.40;;;;;;;17.39;56.21;102075.25;6215080;23;20020;-84
2022/05/27 09:44:36;;;;;;;5.43;2.30;;;;;;;17.58;57.70;102075.66;6214496;23;20001;-85
2022/05/27 09:47:05;;;;;;;4.07;2.33;;;;;;;17.72;58.22;102085.81;6215200;23;20012;-85
2022/05/27 09:49:34;;;;;;;7.55;2.60;;;;;;;17.67;57.54;102074.59;6214915;23;20442;-84
2022/05/27 09:52:01;;;;;;;6.45;2.20;;;;;;;17.89;55.01;102071.41;6214287;23;20005;-84
2022/05/27 09:54:55;;;;;;;9.98;2.85;;;;;;;18.05;52.17;102071.88;6215703;23;20058;-86
2022/05/27 09:57:27;;;;;;;10.30;2.70;;;;;;;18.20;54.60;102063.56;6215564;23;20074;-85
2022/05/27 09:59:58;;;;;;;8.32;2.60;;;;;;;18.35;55.54;102080.66;6214212;23;20039;-83
2022/05/27 10:02:26;;;;;;;4.68;2.30;;;;;;;18.37;55.36;102084.09;6215028;23;20497;-82
2022/05/27 10:04:56;;;;;;;6.63;2.30;;;;;;;18.44;53.82;102079.53;6214029;23;20059;-84
2022/05/27 10:07:33;;;;;;;5.60;2.20;;;;;;;18.40;51.95;102079.66;6215506;23;20010;-84
2022/05/27 10:10:23;;;;;;;7.55;2.38;;;;;;;18.40;53.75;102084.91;6216812;23;20067;-83
2022/05/27 10:12:49;;;;;;;6.72;2.20;;;;;;;18.57;52.30;102087.06;6215933;23;20000;-86
2022/05/27 10:15:31;;;;;;;5.18;1.95;;;;;;;18.70;49.76;102090.19;6217603;23;20079;-85
2022/05/27 10:18:28;;;;;;;6.93;2.45;;;;;;;18.67;48.55;102088.50;6216809;23;20013;-85
2022/05/27 10:21:03;;;;;;;7.07;2.40;;;;;;;18.62;50.72;102078.13;6215496;23;20008;-85
2022/05/27 10:23:35;;;;;;;5.18;2.30;;;;;;;18.54;48.62;102085.41;6217489;23;20026;-86
2022/05/27 10:26:19;;;;;;;7.88;2.63;;;;;;;18.40;48.64;102083.16;6215475;23;20437;-86
2022/05/27 10:28:44;;;;;;;4.15;2.15;;;;;;;18.19;48.61;102082.00;6216635;23;20472;-86
2022/05/27 10:31:16;;;;;;;6.57;2.33;;;;;;;18.21;51.14;102082.81;6216271;23;20009;-86
2022/05/27 10:33:47;;;;;;;5.50;2.22;;;;;;;18.26;50.73;102077.44;6215676;23;20035;-86
2022/05/27 10:36:32;;;;;;;10.60;2.63;;;;;;;18.46;49.83;102077.72;6217025;23;20028;-84
2022/05/27 10:39:36;;;;;;;5.28;2.30;;;;;;;18.73;50.00;102077.84;6216240;23;20013;-85
2022/05/27 10:42:29;;;;;;;5.75;2.30;;;;;;;19.03;50.36;102084.88;6172606;23;20005;-85
2022/05/27 10:45:09;;;;;;;9.40;2.50;;;;;;;19.13;47.37;102087.16;6216702;23;20004;-85
2022/05/27 10:48:02;;;;;;;5.18;2.30;;;;;;;19.31;48.48;102082.19;6216156;23;20016;-85
2022/05/27 10:50:45;;;;;;;7.65;2.30;;;;;;;19.18;48.10;102089.63;6216973;23;20014;-85
2022/05/27 10:53:23;;;;;;;7.72;2.67;;;;;;;19.17;45.47;102074.75;6216979;23;20001;-85
2022/05/27 10:56:25;;;;;;;8.25;2.83;;;;;;;19.10;43.48;102097.75;6215545;23;20402;-85
2022/05/27 11:02:35;;;;;;;5.85;2.30;;;;;;;19.00;48.29;102095.47;6215591;23;20027;-85
2022/05/27 11:05:38;;;;;;;7.47;2.58;;;;;;;19.21;43.97;102083.41;6216363;23;20000;-85
2022/05/27 11:08:25;;;;;;;5.80;2.30;;;;;;;19.49;44.13;102088.63;6215603;23;20066;-85
2022/05/27 11:10:56;;;;;;;6.50;2.35;;;;;;;19.72;45.53;102094.88;6216195;23;20008;-85
2022/05/27 11:16:46;;;;;;;5.50;2.08;;;;;;;19.68;45.90;102088.03;6176854;23;20341;-86
2022/05/27 11:19:48;;;;;;;3.70;2.10;;;;;;;19.58;45.14;102083.06;6216423;23;20005;-84
2022/05/27 11:22:26;;;;;;;5.22;2.08;;;;;;;19.64;44.47;102086.41;6213665;23;20425;-85
2022/05/27 11:25:11;;;;;;;5.25;2.15;;;;;;;19.74;43.83;102079.91;6215777;23;20047;-87
2022/05/27 11:28:11;;;;;;;5.00;2.40;;;;;;;19.66;44.28;102088.06;6215436;23;20444;-83
2022/05/27 11:31:03;;;;;;;6.82;2.10;;;;;;;19.51;46.32;102091.22;6215213;23;20023;-83
2022/05/27 11:33:36;;;;;;;4.75;2.17;;;;;;;19.20;44.64;102108.00;6216388;23;20445;-85
2022/05/27 11:36:14;;;;;;;6.72;2.55;;;;;;;19.04;46.45;102105.84;6215640;23;20013;-87
2022/05/27 11:39:08;;;;;;;9.18;2.40;;;;;;;19.00;46.84;102093.69;6215955;23;20008;-85
2022/05/27 11:41:59;;;;;;;8.32;2.42;;;;;;;19.21;46.30;102109.72;6216121;23;20429;-87
2022/05/27 11:44:48;;;;;;;7.25;2.40;;;;;;;19.33;46.00;102097.94;6215677;23;20017;-86
2022/05/27 11:47:22;;;;;;;6.25;2.20;;;;;;;19.38;44.07;102099.53;6216536;23;20477;-85
2022/05/27 11:50:15;;;;;;;7.15;2.40;;;;;;;19.51;45.06;102107.88;6215646;23;20469;-85
2022/05/27 11:52:46;;;;;;;8.68;2.60;;;;;;;19.64;44.35;102121.50;6215947;23;20013;-82
2022/05/27 11:55:30;;;;;;;7.57;2.40;;;;;;;19.66;42.48;102110.91;6217112;23;20011;-86
2022/05/27 11:58:04;;;;;;;4.55;1.90;;;;;;;19.71;41.87;102109.84;6215107;23;20028;-87
2022/05/27 12:00:35;;;;;;;4.80;2.10;;;;;;;19.81;43.05;102118.31;6216673;23;20005;-87
2022/05/27 12:03:18;;;;;;;5.15;2.15;;;;;;;19.83;42.73;102119.09;6215845;23;20013;-87
2022/05/27 12:05:49;;;;;;;4.20;2.20;;;;;;;19.79;42.38;102106.97;6215128;23;20008;-87
2022/05/27 12:08:27;;;;;;;6.22;2.33;;;;;;;19.78;44.24;102104.34;6215995;23;20015;-87
2022/05/27 12:10:58;;;;;;;6.60;2.20;;;;;;;19.88;43.66;102100.53;6215680;23;20005;-87
2022/05/27 12:13:37;;;;;;;4.60;2.03;;;;;;;19.98;44.10;102101.94;6215288;23;20004;-86
2022/05/27 12:16:13;;;;;;;5.03;2.08;;;;;;;19.93;41.16;102097.75;6216322;23;20008;-87
2022/05/27 12:18:45;;;;;;;5.80;2.05;;;;;;;19.97;43.77;102109.88;6215054;23;20008;-88
2022/05/27 12:21:14;;;;;;;6.00;2.13;;;;;;;19.90;42.47;102106.59;6215999;23;20026;-89
2022/05/27 12:23:44;;;;;;;8.52;2.40;;;;;;;19.86;43.50;102108.50;6215353;23;20413;-86